Nykobing, Denmark
Current Conditions -  °F | °C
As of 8:50 PM on Wednesday 28 Jan 2015 (Local Time) from EKRK Reporting Station
Light Snow Light Snow  
Wind Chill: 24°   Ceiling: 900
Heat Index: 36°   Visibility: 6mi
Dew Point: 34°   Wind: 22mph
Humidity: 93%   Direction: 190°S
Pressure: 28.97"   Gusts: NA
Location:  55.94°N, 11.65°E
Report Text: EKRK 281950Z AUTO 19019KT 9000NDV -RASN FEW006/// BKN009///OVC013/// 02/01 Q0981
Loading
Personal Weather Stations






























Interactive Weather Map New forecast layout! Learn more

10-Day Weather Forecast

Advertisements
Track Severe Weather on mobile